createdAt,value
2022-08-19T00:00:28.477Z,23.51
2022-08-19T00:03:06.500Z,23.51
2022-08-19T00:05:35.892Z,23.52
2022-08-19T00:08:04.987Z,23.52
2022-08-19T00:10:35.166Z,23.52
2022-08-19T00:13:05.314Z,23.51
2022-08-19T00:15:34.444Z,23.51
2022-08-19T00:18:03.227Z,23.50
2022-08-19T00:20:32.633Z,23.50
2022-08-19T00:23:01.357Z,23.50
2022-08-19T00:25:30.847Z,23.47
2022-08-19T00:28:00.449Z,23.43
2022-08-19T00:30:29.919Z,23.40
2022-08-19T00:32:59.157Z,23.37
2022-08-19T00:35:28.405Z,23.36
2022-08-19T00:37:57.309Z,23.36
2022-08-19T00:40:26.667Z,23.35
2022-08-19T00:42:55.386Z,23.33
2022-08-19T00:45:29.016Z,23.33
2022-08-19T00:47:57.905Z,23.29
2022-08-19T00:50:26.682Z,23.28
2022-08-19T00:52:56.111Z,23.28
2022-08-19T00:55:29.937Z,23.29
2022-08-19T00:58:05.962Z,23.29
2022-08-19T01:00:38.952Z,23.27
2022-08-19T01:03:14.547Z,23.24
2022-08-19T01:05:46.195Z,23.20
2022-08-19T01:08:18.389Z,23.16
2022-08-19T01:10:55.771Z,23.12
2022-08-19T01:13:29.494Z,23.07
2022-08-19T01:16:21.682Z,23.01
2022-08-19T01:18:51.448Z,22.98
2022-08-19T01:21:35.547Z,22.94
2022-08-19T01:24:05.171Z,22.92
2022-08-19T01:26:42.801Z,22.92
2022-08-19T01:29:13.103Z,22.90
2022-08-19T01:31:41.961Z,22.88
2022-08-19T01:34:11.122Z,22.84
2022-08-19T01:36:46.668Z,22.81
2022-08-19T01:39:23.446Z,22.78
2022-08-19T01:41:56.265Z,22.76
2022-08-19T01:44:25.235Z,22.70
2022-08-19T01:46:54.349Z,22.65
2022-08-19T01:49:26.430Z,22.61
2022-08-19T01:51:55.835Z,22.60
2022-08-19T01:54:27.886Z,22.56
2022-08-19T01:57:09.827Z,22.53
2022-08-19T01:59:40.523Z,22.49
2022-08-19T02:02:09.524Z,22.47
2022-08-19T02:04:39.658Z,22.45
2022-08-19T02:07:09.607Z,22.43
2022-08-19T02:09:39.282Z,22.41
2022-08-19T02:12:09.880Z,22.41
2022-08-19T02:14:38.656Z,22.42
2022-08-19T02:17:07.483Z,22.40
2022-08-19T02:19:36.298Z,22.38
2022-08-19T02:22:08.771Z,22.34
2022-08-19T02:24:37.698Z,22.31
2022-08-19T02:27:06.952Z,22.28
2022-08-19T02:29:35.685Z,22.26
2022-08-19T02:32:05.441Z,22.25
2022-08-19T02:34:35.493Z,22.23
2022-08-19T02:37:04.349Z,22.20
2022-08-19T02:39:33.086Z,22.18
2022-08-19T02:42:03.304Z,22.16
2022-08-19T02:44:32.186Z,22.15
2022-08-19T02:47:01.004Z,22.14
2022-08-19T02:49:29.755Z,22.14
2022-08-19T02:52:04.515Z,22.13
2022-08-19T02:54:33.382Z,22.11
2022-08-19T02:57:02.177Z,22.10
2022-08-19T02:59:32.320Z,22.08
2022-08-19T03:02:01.208Z,22.04
2022-08-19T03:04:30.798Z,22.02
2022-08-19T03:07:07.216Z,21.99
2022-08-19T03:09:40.292Z,21.96
2022-08-19T03:12:11.288Z,21.93
2022-08-19T03:14:40.155Z,21.91
2022-08-19T03:17:09.047Z,21.90
2022-08-19T03:19:39.319Z,21.87
2022-08-19T03:22:09.036Z,21.84
2022-08-19T03:24:39.415Z,21.80
2022-08-19T03:27:08.196Z,21.78
2022-08-19T03:29:43.295Z,21.79
2022-08-19T03:32:24.434Z,21.77
2022-08-19T03:35:02.287Z,21.73
2022-08-19T03:37:31.087Z,21.71
2022-08-19T03:39:59.966Z,21.70
2022-08-19T03:42:38.310Z,21.70
2022-08-19T03:45:18.279Z,21.68
2022-08-19T03:47:46.994Z,21.65
2022-08-19T03:50:16.955Z,21.64
2022-08-19T03:52:51.827Z,21.62
2022-08-19T03:55:20.876Z,21.61
2022-08-19T03:57:50.436Z,21.61
2022-08-19T04:00:19.579Z,21.59
2022-08-19T04:02:58.506Z,21.59
2022-08-19T04:05:30.295Z,21.58
2022-08-19T04:08:00.048Z,21.56
2022-08-19T04:10:29.640Z,21.53
2022-08-19T04:12:58.453Z,21.50
2022-08-19T04:15:28.678Z,21.49
2022-08-19T04:17:57.415Z,21.49
2022-08-19T04:20:26.123Z,21.50
2022-08-19T04:22:55.108Z,21.51
2022-08-19T04:25:24.036Z,21.50
2022-08-19T04:27:52.820Z,21.49
2022-08-19T04:30:23.691Z,21.48
2022-08-19T04:32:52.564Z,21.46
2022-08-19T04:35:24.798Z,21.45
2022-08-19T04:37:53.946Z,21.46
2022-08-19T04:40:41.133Z,21.49
2022-08-19T04:43:16.649Z,21.52
2022-08-19T04:45:46.855Z,21.56
2022-08-19T04:48:26.660Z,21.61
2022-08-19T04:50:59.265Z,21.67
2022-08-19T04:53:37.876Z,21.71
2022-08-19T04:56:17.443Z,21.67
2022-08-19T04:58:46.929Z,21.69
2022-08-19T05:01:21.388Z,21.73
2022-08-19T05:03:51.060Z,21.79
2022-08-19T05:06:22.343Z,21.86
2022-08-19T05:08:51.232Z,21.91
2022-08-19T05:11:29.431Z,21.95
2022-08-19T05:13:58.952Z,22.01
2022-08-19T05:16:28.933Z,22.10
2022-08-19T05:19:16.119Z,22.18
2022-08-19T05:22:04.385Z,22.26
2022-08-19T05:24:35.272Z,22.37
2022-08-19T05:27:06.684Z,22.47
2022-08-19T05:29:36.365Z,22.54
2022-08-19T05:32:09.813Z,22.54
2022-08-19T05:34:39.291Z,22.61
2022-08-19T05:37:09.453Z,22.71
2022-08-19T05:39:39.397Z,22.84
2022-08-19T05:42:11.985Z,22.98
2022-08-19T05:44:48.209Z,23.13
2022-08-19T05:47:19.932Z,23.29
2022-08-19T05:49:51.447Z,23.44
2022-08-19T05:52:25.763Z,23.60
2022-08-19T05:55:05.193Z,23.80
2022-08-19T05:58:00.128Z,24.01
2022-08-19T06:00:53.973Z,24.23
2022-08-19T06:03:50.066Z,24.37
2022-08-19T06:06:45.671Z,24.52
2022-08-19T06:09:43.643Z,24.67
2022-08-19T06:13:01.789Z,24.85
2022-08-19T06:16:42.060Z,24.98
2022-08-19T06:19:31.104Z,25.23
2022-08-19T06:22:19.973Z,25.47
2022-08-19T06:25:30.053Z,25.69
2022-08-19T06:29:11.514Z,25.84
2022-08-19T06:32:30.931Z,25.90
2022-08-19T06:35:15.229Z,25.94
2022-08-19T06:38:03.562Z,25.99
2022-08-19T06:40:35.591Z,26.12
2022-08-19T06:43:10.605Z,26.28
2022-08-19T06:45:43.377Z,26.48
2022-08-19T06:48:31.417Z,26.63
2022-08-19T06:51:08.683Z,26.78
2022-08-19T06:53:40.777Z,26.90
2022-08-19T06:59:32.500Z,27.15
2022-08-19T07:02:14.504Z,27.32
2022-08-19T07:04:52.413Z,27.47
2022-08-19T07:07:34.686Z,27.69
2022-08-19T07:10:36.239Z,27.94
2022-08-19T07:13:14.833Z,28.12
2022-08-19T07:15:52.362Z,28.29
2022-08-19T07:18:41.054Z,28.54
2022-08-19T07:21:31.931Z,28.82
2022-08-19T07:24:10.569Z,29.03
2022-08-19T07:26:45.137Z,29.19
2022-08-19T07:29:28.720Z,29.47
2022-08-19T07:32:17.492Z,29.77
2022-08-19T07:34:57.047Z,29.91
2022-08-19T07:37:33.508Z,30.01
2022-08-19T07:40:12.128Z,30.15
2022-08-19T07:42:51.808Z,30.34
2022-08-19T07:45:39.800Z,30.53
2022-08-19T07:48:20.564Z,30.71
2022-08-19T07:51:36.995Z,30.90
2022-08-19T07:54:08.926Z,30.98
2022-08-19T07:56:43.258Z,30.96
2022-08-19T07:59:48.251Z,30.88
2022-08-19T08:02:26.888Z,30.80
2022-08-19T08:07:00.501Z,30.81
2022-08-19T08:12:32.816Z,31.02
2022-08-19T08:15:59.132Z,31.05
2022-08-19T08:19:20.581Z,31.10
2022-08-19T08:22:26.512Z,31.21
2022-08-19T08:25:27.454Z,31.45
2022-08-19T08:28:31.339Z,31.86
2022-08-19T08:31:20.323Z,32.27
2022-08-19T08:34:00.126Z,32.41
2022-08-19T08:36:40.216Z,32.56
2022-08-19T08:39:24.564Z,32.88
2022-08-19T08:42:17.814Z,32.96
2022-08-19T08:45:16.130Z,33.03
2022-08-19T08:48:01.114Z,33.25
2022-08-19T08:50:45.544Z,33.39
2022-08-19T08:53:47.224Z,33.54
2022-08-19T08:58:20.998Z,33.62
2022-08-19T09:00:51.521Z,33.81
2022-08-19T09:03:33.474Z,34.05
2022-08-19T09:07:01.932Z,34.18
2022-08-19T09:09:53.665Z,34.28
2022-08-19T09:12:59.790Z,34.29
2022-08-19T09:16:12.452Z,34.34
2022-08-19T09:19:09.971Z,34.44
2022-08-19T09:21:48.906Z,34.66
2022-08-19T09:24:48.805Z,34.91
2022-08-19T09:27:43.752Z,35.03
2022-08-19T09:30:49.003Z,35.17
2022-08-19T09:33:31.357Z,35.39
2022-08-19T09:36:42.281Z,35.47
2022-08-19T09:40:07.098Z,35.68
2022-08-19T09:43:10.034Z,35.67
2022-08-19T09:46:03.296Z,35.75
2022-08-19T09:48:38.115Z,36.02
2022-08-19T09:51:19.612Z,36.12
2022-08-19T09:54:11.231Z,36.07
2022-08-19T09:57:09.464Z,35.95
2022-08-19T09:59:44.685Z,36.01
2022-08-19T10:02:22.149Z,36.19
2022-08-19T10:05:14.256Z,36.40
2022-08-19T10:08:13.013Z,36.50
2022-08-19T10:10:48.521Z,36.38
2022-08-19T10:13:33.077Z,36.09
2022-08-19T10:16:33.869Z,35.95
2022-08-19T10:19:11.797Z,35.96
2022-08-19T10:21:46.555Z,36.17
2022-08-19T10:24:27.663Z,36.39
2022-08-19T10:30:13.455Z,36.55
2022-08-19T10:33:11.676Z,36.77
2022-08-19T10:38:52.295Z,36.46
2022-08-19T10:41:42.702Z,36.32
2022-08-19T10:44:16.940Z,36.22
2022-08-19T10:46:56.525Z,36.15
2022-08-19T10:49:33.328Z,36.06
2022-08-19T10:52:38.754Z,35.84
2022-08-19T10:55:34.712Z,35.68
2022-08-19T10:58:04.623Z,35.44
2022-08-19T11:00:39.310Z,35.25
2022-08-19T11:03:19.790Z,35.00
2022-08-19T11:06:06.476Z,34.55
2022-08-19T11:08:49.145Z,34.29
2022-08-19T11:11:22.612Z,34.11
2022-08-19T11:13:52.545Z,34.08
2022-08-19T11:16:27.930Z,34.04
2022-08-19T11:19:00.524Z,33.92
2022-08-19T11:21:36.693Z,33.75
2022-08-19T11:24:13.553Z,33.66
2022-08-19T11:27:10.426Z,33.56
2022-08-19T11:29:40.447Z,33.46
2022-08-19T11:32:14.300Z,33.43
2022-08-19T11:34:45.578Z,33.42
2022-08-19T11:37:17.061Z,33.38
2022-08-19T11:39:49.289Z,33.37
2022-08-19T11:42:44.755Z,33.37
2022-08-19T11:45:16.187Z,33.42
2022-08-19T11:47:48.858Z,33.38
2022-08-19T11:50:24.690Z,33.46
2022-08-19T11:52:58.649Z,33.56
2022-08-19T11:55:27.909Z,33.63
2022-08-19T11:57:58.344Z,33.71
2022-08-19T12:00:31.978Z,33.70
2022-08-19T12:03:02.578Z,33.69
2022-08-19T12:05:43.154Z,33.73
2022-08-19T12:08:26.294Z,33.72
2022-08-19T12:10:57.924Z,33.69
2022-08-19T12:13:43.020Z,33.66
2022-08-19T12:16:34.476Z,33.63
2022-08-19T12:19:08.786Z,33.63
2022-08-19T12:21:42.555Z,33.65
2022-08-19T12:24:24.399Z,33.66
2022-08-19T12:27:00.824Z,33.67
2022-08-19T12:29:33.720Z,33.68
2022-08-19T12:32:07.432Z,33.73
2022-08-19T12:34:40.754Z,33.77
2022-08-19T12:37:13.398Z,33.81
2022-08-19T12:39:44.651Z,33.85
2022-08-19T12:42:21.735Z,33.89
2022-08-19T12:44:55.222Z,33.88
2022-08-19T12:47:34.253Z,33.85
2022-08-19T12:50:09.925Z,33.80
2022-08-19T12:52:49.952Z,33.80
2022-08-19T12:55:28.493Z,33.80
2022-08-19T12:58:27.065Z,33.76
2022-08-19T13:01:29.990Z,33.69
2022-08-19T13:04:15.698Z,33.69
2022-08-19T13:07:04.844Z,33.71
2022-08-19T13:09:41.576Z,33.70
2022-08-19T13:12:14.474Z,33.69
2022-08-19T13:17:00.060Z,33.68
2022-08-19T13:18:33.659Z,33.68
2022-08-19T13:21:14.432Z,33.71
2022-08-19T13:23:45.235Z,33.72
2022-08-19T13:26:21.081Z,33.74
2022-08-19T13:29:08.933Z,33.77
2022-08-19T13:32:05.172Z,33.76
2022-08-19T13:34:39.696Z,33.73
2022-08-19T13:37:13.511Z,33.77
2022-08-19T13:39:48.655Z,33.82
2022-08-19T13:42:25.430Z,33.81
2022-08-19T13:45:02.707Z,33.77
2022-08-19T13:47:36.403Z,33.72
2022-08-19T13:50:07.745Z,33.70
2022-08-19T13:52:37.155Z,33.67
2022-08-19T13:55:12.724Z,33.61
2022-08-19T13:58:00.050Z,33.58
2022-08-19T14:00:41.248Z,33.52
2022-08-19T14:03:26.296Z,33.51
2022-08-19T14:06:01.401Z,33.56
2022-08-19T14:08:34.624Z,33.59
2022-08-19T14:11:25.849Z,33.61
2022-08-19T14:14:02.564Z,33.59
2022-08-19T14:16:36.977Z,33.53
2022-08-19T14:19:06.453Z,33.53
2022-08-19T14:21:41.528Z,33.54
2022-08-19T14:24:14.402Z,33.54
2022-08-19T14:26:43.468Z,33.55
2022-08-19T14:29:15.665Z,33.47
2022-08-19T14:31:54.207Z,33.49
2022-08-19T14:34:27.681Z,33.51
2022-08-19T14:37:02.207Z,33.49
2022-08-19T14:39:41.874Z,33.47
2022-08-19T14:42:15.754Z,33.45
2022-08-19T14:44:48.413Z,33.44
2022-08-19T14:47:25.423Z,33.47
2022-08-19T14:49:59.417Z,33.46
2022-08-19T14:52:34.536Z,33.49
2022-08-19T14:55:07.900Z,33.50
2022-08-19T14:57:40.769Z,33.48
2022-08-19T15:00:25.853Z,33.45
2022-08-19T15:02:55.838Z,33.46
2022-08-19T15:05:25.282Z,33.47
2022-08-19T15:07:56.876Z,33.45
2022-08-19T15:10:26.308Z,33.41
2022-08-19T15:13:05.408Z,33.36
2022-08-19T15:15:38.286Z,33.30
2022-08-19T15:18:31.415Z,33.25
2022-08-19T15:21:08.391Z,33.23
2022-08-19T15:23:43.732Z,33.24
2022-08-19T15:26:38.328Z,33.21
2022-08-19T15:29:21.771Z,33.20
2022-08-19T15:32:06.139Z,33.20
2022-08-19T15:34:45.647Z,33.21
2022-08-19T15:37:44.761Z,33.21
2022-08-19T15:40:14.326Z,33.19
2022-08-19T15:42:54.445Z,33.18
2022-08-19T15:45:32.285Z,33.16
2022-08-19T15:48:07.347Z,33.13
2022-08-19T15:50:45.261Z,33.09
2022-08-19T15:53:19.036Z,33.07
2022-08-19T15:55:51.405Z,33.03
2022-08-19T15:58:39.561Z,33.00
2022-08-19T16:01:29.129Z,32.96
2022-08-19T16:04:22.924Z,32.91
2022-08-19T16:06:59.626Z,32.84
2022-08-19T16:09:36.047Z,32.76
2022-08-19T16:12:08.958Z,32.69
2022-08-19T16:14:39.884Z,32.63
2022-08-19T16:17:12.928Z,32.50
2022-08-19T16:19:47.601Z,32.44
2022-08-19T16:22:33.327Z,32.41
2022-08-19T16:25:25.305Z,32.38
2022-08-19T16:28:33.821Z,32.30
2022-08-19T16:31:29.125Z,32.23
2022-08-19T16:34:12.958Z,32.19
2022-08-19T16:36:50.870Z,32.16
2022-08-19T16:39:25.237Z,32.15
2022-08-19T16:42:07.503Z,32.13
2022-08-19T16:44:41.795Z,32.09
2022-08-19T16:47:19.340Z,32.05
2022-08-19T16:49:55.496Z,32.00
2022-08-19T16:52:53.453Z,31.92
2022-08-19T16:55:25.678Z,31.82
2022-08-19T16:58:20.925Z,31.78
2022-08-19T17:01:25.199Z,31.71
2022-08-19T17:03:58.605Z,31.66
2022-08-19T17:06:59.408Z,31.61
2022-08-19T17:09:58.478Z,31.54
2022-08-19T17:12:44.876Z,31.50
2022-08-19T17:15:25.152Z,31.49
2022-08-19T17:18:24.227Z,31.45
2022-08-19T17:20:57.287Z,31.41
2022-08-19T17:23:43.772Z,31.38
2022-08-19T17:26:27.676Z,31.34
2022-08-19T17:29:14.271Z,31.28
2022-08-19T17:32:02.439Z,31.23
2022-08-19T17:34:36.427Z,31.18
2022-08-19T17:37:16.181Z,31.12
2022-08-19T17:39:49.646Z,31.07
2022-08-19T17:42:34.931Z,31.03
2022-08-19T17:45:08.259Z,31.00
2022-08-19T17:47:41.621Z,30.96
2022-08-19T17:50:14.913Z,30.93
2022-08-19T17:52:54.698Z,30.91
2022-08-19T17:55:32.152Z,30.90
2022-08-19T17:58:26.810Z,30.82
2022-08-19T18:01:10.006Z,30.72
2022-08-19T18:04:48.588Z,30.53
2022-08-19T18:08:01.783Z,30.08
2022-08-19T18:10:34.818Z,29.69
2022-08-19T18:13:17.882Z,29.36
2022-08-19T18:15:57.689Z,28.98
2022-08-19T18:18:42.089Z,28.71
2022-08-19T18:21:36.435Z,28.51
2022-08-19T18:24:53.198Z,28.29
2022-08-19T18:32:01.899Z,27.82
2022-08-19T18:34:42.511Z,27.67
2022-08-19T18:37:41.963Z,27.55
2022-08-19T18:41:00.123Z,27.41
2022-08-19T18:43:58.201Z,27.27
2022-08-19T18:46:56.236Z,27.15
2022-08-19T18:50:07.194Z,26.85
2022-08-19T18:53:03.400Z,26.63
2022-08-19T18:56:07.964Z,26.54
2022-08-19T18:59:10.072Z,26.49
2022-08-19T19:02:09.360Z,26.45
2022-08-19T19:05:06.869Z,26.39
2022-08-19T19:08:14.879Z,26.32
2022-08-19T19:11:28.609Z,26.26
2022-08-19T19:14:49.540Z,26.21
2022-08-19T19:17:26.227Z,26.18
2022-08-19T19:19:58.940Z,26.16
2022-08-19T19:22:31.326Z,26.12
2022-08-19T19:25:04.667Z,26.06
2022-08-19T19:27:36.914Z,26.04
2022-08-19T19:30:09.880Z,26.03
2022-08-19T19:32:40.821Z,25.99
2022-08-19T19:35:12.744Z,25.94
2022-08-19T19:37:52.680Z,25.89
2022-08-19T19:40:22.609Z,25.87
2022-08-19T19:42:52.212Z,25.85
2022-08-19T19:45:22.758Z,25.85
2022-08-19T19:47:52.134Z,25.84
2022-08-19T19:50:21.633Z,25.83
2022-08-19T19:52:50.804Z,25.79
2022-08-19T19:55:31.120Z,25.76
2022-08-19T19:58:09.436Z,25.73
2022-08-19T20:00:38.816Z,25.68
2022-08-19T20:03:10.706Z,25.66
2022-08-19T20:05:40.483Z,25.65
2022-08-19T20:08:29.362Z,25.63
2022-08-19T20:11:05.620Z,25.57
2022-08-19T20:13:40.925Z,25.55
2022-08-19T20:16:10.672Z,25.55
2022-08-19T20:18:40.384Z,25.54
2022-08-19T20:21:12.659Z,25.50
2022-08-19T20:23:41.770Z,25.42
2022-08-19T20:26:19.273Z,25.35
2022-08-19T20:29:13.431Z,25.28
2022-08-19T20:31:57.621Z,25.18
2022-08-19T20:34:29.081Z,25.13
2022-08-19T20:36:59.023Z,25.15
2022-08-19T20:39:28.296Z,25.16
2022-08-19T20:42:00.978Z,25.17
2022-08-19T20:44:30.063Z,25.19
2022-08-19T20:47:03.376Z,25.19
2022-08-19T20:49:33.214Z,25.19
2022-08-19T20:52:08.606Z,25.20
2022-08-19T20:54:37.774Z,25.21
2022-08-19T20:57:14.634Z,25.21
2022-08-19T20:59:43.756Z,25.22
2022-08-19T21:02:13.112Z,25.19
2022-08-19T21:04:43.364Z,25.14
2022-08-19T21:07:12.883Z,25.14
2022-08-19T21:09:42.264Z,25.15
2022-08-19T21:12:14.296Z,25.15
2022-08-19T21:14:47.284Z,25.15
2022-08-19T21:17:18.354Z,25.11
2022-08-19T21:19:50.385Z,25.09
2022-08-19T21:22:23.971Z,25.09
2022-08-19T21:24:53.480Z,25.10
2022-08-19T21:27:28.769Z,25.07
2022-08-19T21:29:57.914Z,25.01
2022-08-19T21:32:27.451Z,24.96
2022-08-19T21:34:57.165Z,24.93
2022-08-19T21:37:31.221Z,24.87
2022-08-19T21:40:02.360Z,24.82
2022-08-19T21:42:31.542Z,24.79
2022-08-19T21:45:04.788Z,24.78
2022-08-19T21:47:47.522Z,24.79
2022-08-19T21:50:34.785Z,24.78
2022-08-19T21:53:39.086Z,24.73
2022-08-19T21:56:08.695Z,24.74
2022-08-19T21:58:54.239Z,24.78
2022-08-19T22:01:42.778Z,24.81
2022-08-19T22:04:23.094Z,24.85
2022-08-19T22:07:19.924Z,24.84
2022-08-19T22:10:38.011Z,24.82
2022-08-19T22:13:49.456Z,24.74
2022-08-19T22:17:01.923Z,24.77
2022-08-19T22:20:22.151Z,24.80
2022-08-19T22:23:31.891Z,24.77
2022-08-19T22:31:04.591Z,24.67
2022-08-19T22:38:08.834Z,24.60
2022-08-19T22:43:48.738Z,24.69
2022-08-19T22:47:22.625Z,24.71
2022-08-19T22:54:35.782Z,24.69
2022-08-19T22:57:07.148Z,24.76
2022-08-19T22:59:41.720Z,24.78
2022-08-19T23:02:30.217Z,24.80
2022-08-19T23:05:03.966Z,24.79
2022-08-19T23:07:40.231Z,24.72
2022-08-19T23:10:15.121Z,24.65
2022-08-19T23:12:59.513Z,24.58
2022-08-19T23:15:33.535Z,24.53
2022-08-19T23:18:08.256Z,24.46
2022-08-19T23:20:47.954Z,24.35
2022-08-19T23:23:20.103Z,24.28
2022-08-19T23:25:49.420Z,24.23
2022-08-19T23:28:40.673Z,24.18
2022-08-19T23:31:12.653Z,24.08
2022-08-19T23:33:51.902Z,23.97
2022-08-19T23:36:24.491Z,23.88
2022-08-19T23:38:55.082Z,23.80
2022-08-19T23:41:30.025Z,23.72
2022-08-19T23:44:05.938Z,23.65
2022-08-19T23:46:54.892Z,23.58
2022-08-19T23:49:26.116Z,23.52
2022-08-19T23:51:55.941Z,23.49
2022-08-19T23:54:42.765Z,23.48
2022-08-19T23:57:14.453Z,23.45
2022-08-19T23:59:56.218Z,23.40
